This is the latest recevied weather packets stored in our database for station/object KC3QLX. If no packets are shown the sender has not sent any weather packets the latest 1 day(s).
| Time | Temp. | Humidity | Pressure | Rain* | Wind** | Luminosity | Snow |
|---|---|---|---|---|---|---|---|
| 1778055941 | 17.78° C | 70% | 1007.6 hPa | 0 mm | - | 0 W/m² | - |
| 1778055637 | 17.78° C | 72% | 1007.6 hPa | 0 mm | - | 0 W/m² | - |
| 1778055335 | 17.78° C | 70% | 1007.6 hPa | 0 mm | - | 0 W/m² | - |
| 1778055032 | 17.78° C | 71% | 1007.6 hPa | 0 mm | - | 0 W/m² | - |
| 1778054730 | 17.78° C | 70% | 1007.5 hPa | 0 mm | - | 0 W/m² | - |
| 1778053821 | 16.67° C | 72% | 1007.7 hPa | 0 mm | - | 0 W/m² | - |
| 1778052610 | 16.67° C | 73% | 1007.9 hPa | 0 mm | - | 0 W/m² | - |
| 1778052005 | 17.22° C | 70% | 1007.8 hPa | 0 mm | - | 0 W/m² | - |
| 1778050188 | 17.78° C | 68% | 1008.1 hPa | 0 mm | - | 0 W/m² | - |
| 1778049278 | 18.33° C | 65% | 1008.4 hPa | 0 mm | - | 0 W/m² | - |
| 1778048976 | 18.33° C | 64% | 1008.2 hPa | 0 mm | - | 0 W/m² | - |
| 1778048674 | 18.89° C | 63% | 1008.4 hPa | 0 mm | - | 0 W/m² | - |
| 1778048370 | 18.89° C | 62% | 1008.1 hPa | 0 mm | - | 0 W/m² | - |
| 1778047765 | 18.89° C | 62% | 1008.3 hPa | 0 mm | - | 0 W/m² | - |
| 1778047159 | 19.44° C | 61% | 1008.5 hPa | 0 mm | - | 0 W/m² | - |
| 1778046856 | 19.44° C | 59% | 1008.4 hPa | 0 mm | - | 0 W/m² | - |
| 1778046553 | 19.44° C | 61% | 1008.7 hPa | 0 mm | - | 0 W/m² | - |
| 1778046250 | 19.44° C | 60% | 1008.5 hPa | 0 mm | - | 0 W/m² | - |
| 1778045946 | 19.44° C | 59% | 1008.8 hPa | 0 mm | - | 0 W/m² | - |
| 1778045041 | 20° C | 58% | 1009 hPa | 0 mm | - | 0 W/m² | - |
| 1778044434 | 20° C | 58% | 1008.9 hPa | 0 mm | - | 0 W/m² | - |
| 1778043526 | 20° C | 56% | 1008.7 hPa | 0 mm | - | 0 W/m² | - |
| 1778042314 | 20.56° C | 54% | 1008.7 hPa | 0 mm | - | 0 W/m² | - |
| 1778041108 | 20.56° C | 53% | 1008.8 hPa | 0 mm | - | 0 W/m² | - |
| 1778040500 | 20.56° C | 53% | 1008.7 hPa | 0 mm | - | 0 W/m² | - |
* Rain latest hour (hover to see other rain measurements)
** Current wind speed in m/s (hover to see current wind gust speed)